createdAt,value
2023-05-25T00:08:40.429Z,5.45
2023-05-25T00:21:40.415Z,6.50
2023-05-25T00:34:40.444Z,5.30
2023-05-25T00:47:40.479Z,4.90
2023-05-25T01:00:40.593Z,4.60
2023-05-25T01:13:40.897Z,5.10
2023-05-25T01:26:41.094Z,5.30
2023-05-25T01:39:40.958Z,5.70
2023-05-25T01:52:40.648Z,4.75
2023-05-25T02:05:41.003Z,5.40
2023-05-25T02:18:41.041Z,4.90
2023-05-25T02:31:41.114Z,4.40
2023-05-25T02:44:41.162Z,4.30
2023-05-25T02:57:41.251Z,3.80
2023-05-25T03:10:41.280Z,3.60
2023-05-25T03:23:41.243Z,3.90
2023-05-25T03:36:41.347Z,4.10
2023-05-25T03:49:41.300Z,3.90
2023-05-25T04:02:41.260Z,3.70
2023-05-25T04:15:41.451Z,3.60
2023-05-25T04:28:41.385Z,3.70
2023-05-25T04:41:41.175Z,3.10
2023-05-25T04:54:41.279Z,3.15
2023-05-25T05:07:41.353Z,3.90
2023-05-25T05:20:41.348Z,3.30
2023-05-25T05:33:41.419Z,2.90
2023-05-25T05:46:41.403Z,3.10
2023-05-25T05:59:41.386Z,2.60
2023-05-25T06:12:41.319Z,3.60
2023-05-25T06:25:41.391Z,5.90
2023-05-25T06:38:41.389Z,5.50
2023-05-25T06:51:41.487Z,4.60
2023-05-25T07:04:41.546Z,5.00
2023-05-25T07:17:41.520Z,6.80
2023-05-25T07:30:41.591Z,4.30
2023-05-25T07:43:41.607Z,83.90
2023-05-25T07:56:41.643Z,59.20
2023-05-25T08:09:41.664Z,47.30
2023-05-25T08:22:41.636Z,40.90
2023-05-25T08:35:41.733Z,34.90
2023-05-25T09:01:41.260Z,27.10
2023-05-25T09:14:41.264Z,25.00
2023-05-25T09:27:41.657Z,24.70
2023-05-25T09:53:41.507Z,19.00
2023-05-25T10:06:41.400Z,18.50
2023-05-25T10:19:41.741Z,16.20
2023-05-25T10:32:41.345Z,16.50
2023-05-25T10:42:41.328Z,22.50
2023-05-25T10:55:41.367Z,14.10
2023-05-25T11:05:41.370Z,11.30
2023-05-25T11:18:41.342Z,11.20
2023-05-25T11:28:41.447Z,9.10
2023-05-25T11:38:43.570Z,9.80
2023-05-25T11:48:41.343Z,9.50
2023-05-25T11:58:41.329Z,9.00
2023-05-25T12:08:41.385Z,9.80
2023-05-25T12:21:41.384Z,8.10
2023-05-25T12:34:41.404Z,6.80
2023-05-25T12:47:41.581Z,7.10
2023-05-25T13:00:41.462Z,6.70
2023-05-25T13:13:41.442Z,5.50
2023-05-25T13:26:41.580Z,6.40
2023-05-25T13:39:41.500Z,5.30
2023-05-25T13:52:41.665Z,4.70
2023-05-25T14:05:41.742Z,5.30
2023-05-25T14:18:41.596Z,3.90
2023-05-25T14:31:41.689Z,4.80
2023-05-25T14:44:41.590Z,3.70
2023-05-25T14:57:41.624Z,3.70
2023-05-25T15:10:41.722Z,3.70
2023-05-25T15:23:41.642Z,4.70
2023-05-25T15:36:41.707Z,6.90
2023-05-25T15:49:41.756Z,5.20
2023-05-25T16:02:41.784Z,5.70
2023-05-25T16:15:41.852Z,5.20
2023-05-25T16:28:41.847Z,7.10
2023-05-25T16:41:41.809Z,5.60
2023-05-25T16:54:41.809Z,6.40
2023-05-25T17:07:41.893Z,5.10
2023-05-25T17:20:41.891Z,7.00
2023-05-25T17:33:41.862Z,6.50
2023-05-25T17:46:41.909Z,16.10
2023-05-25T17:59:43.578Z,9.20
2023-05-25T18:12:41.967Z,7.30
2023-05-25T18:25:42.138Z,6.70
2023-05-25T18:38:42.027Z,7.10
2023-05-25T18:51:42.022Z,8.00
2023-05-25T19:04:42.033Z,5.50
2023-05-25T19:17:42.096Z,6.60
2023-05-25T19:30:42.071Z,6.70
2023-05-25T19:43:42.095Z,4.70
2023-05-25T19:56:44.080Z,5.80
2023-05-25T20:09:42.134Z,8.80
2023-05-25T20:22:42.185Z,22.80
2023-05-25T20:35:42.281Z,18.00
2023-05-25T20:48:42.342Z,14.90
2023-05-25T21:01:42.331Z,16.20
2023-05-25T21:14:42.407Z,13.60
2023-05-25T21:27:42.376Z,17.10
2023-05-25T21:40:42.417Z,12.80
2023-05-25T21:53:42.462Z,11.40
2023-05-25T22:06:42.476Z,11.60
2023-05-25T22:19:44.900Z,10.80
2023-05-25T22:32:42.520Z,10.50
2023-05-25T22:45:42.610Z,9.20
2023-05-25T22:58:42.510Z,9.40
2023-05-25T23:11:42.555Z,9.00
2023-05-25T23:24:42.554Z,7.00
2023-05-25T23:37:42.586Z,7.20
2023-05-25T23:50:42.548Z,7.60
